createdAt,value
2023-01-04T00:01:13.382Z,5.30
2023-01-04T00:03:41.097Z,5.23
2023-01-04T00:06:09.414Z,4.40
2023-01-04T00:08:37.136Z,5.53
2023-01-04T00:11:06.649Z,5.67
2023-01-04T00:13:35.958Z,5.60
2023-01-04T00:16:08.640Z,4.77
2023-01-04T00:18:37.721Z,4.73
2023-01-04T00:21:10.093Z,4.60
2023-01-04T00:23:38.181Z,6.17
2023-01-04T00:26:09.511Z,6.50
2023-01-04T00:28:39.021Z,5.73
2023-01-04T00:31:07.745Z,5.77
2023-01-04T00:33:35.467Z,5.70
2023-01-04T00:36:05.078Z,5.37
2023-01-04T00:38:33.538Z,5.77
2023-01-04T00:41:01.172Z,4.40
2023-01-04T00:43:28.932Z,4.80
2023-01-04T00:45:58.240Z,5.23
2023-01-04T00:48:26.004Z,6.13
2023-01-04T00:50:53.615Z,5.33
2023-01-04T00:53:21.229Z,5.67
2023-01-04T00:55:48.985Z,5.07
2023-01-04T00:58:16.600Z,5.93
2023-01-04T01:00:44.158Z,5.43
2023-01-04T01:03:13.089Z,5.90
2023-01-04T01:05:40.571Z,4.40
2023-01-04T01:08:22.014Z,5.63
2023-01-04T01:10:49.511Z,6.00
2023-01-04T01:13:17.017Z,6.53
2023-01-04T01:15:44.553Z,6.63
2023-01-04T01:18:13.450Z,5.97
2023-01-04T01:20:44.875Z,5.90
2023-01-04T01:23:13.750Z,7.60
2023-01-04T01:25:41.313Z,6.93
2023-01-04T01:28:09.540Z,6.57
2023-01-04T01:30:40.533Z,6.83
2023-01-04T01:33:08.119Z,7.80
2023-01-04T01:35:37.338Z,8.00
2023-01-04T01:38:04.870Z,8.60
2023-01-04T01:40:32.381Z,10.57
2023-01-04T01:42:59.859Z,9.20
2023-01-04T01:45:30.746Z,9.27
2023-01-04T01:48:02.622Z,9.83
2023-01-04T01:50:32.219Z,9.93
2023-01-04T01:53:01.896Z,9.50
2023-01-04T01:55:31.203Z,9.80
2023-01-04T01:57:59.530Z,10.10
2023-01-04T02:00:27.007Z,11.20
2023-01-04T02:03:01.538Z,11.30
2023-01-04T02:05:29.480Z,10.37
2023-01-04T02:07:56.944Z,12.20
2023-01-04T02:10:26.136Z,10.87
2023-01-04T02:12:53.810Z,11.57
2023-01-04T02:15:24.555Z,12.10
2023-01-04T02:17:58.578Z,11.20
2023-01-04T02:20:33.144Z,11.43
2023-01-04T02:23:39.057Z,11.00
2023-01-04T02:26:24.858Z,10.93
2023-01-04T02:29:18.505Z,10.73
2023-01-04T02:31:48.887Z,12.70
2023-01-04T02:34:22.178Z,12.40
2023-01-04T02:36:55.598Z,11.43
2023-01-04T02:39:32.581Z,11.80
2023-01-04T02:42:07.028Z,12.93
2023-01-04T02:45:00.852Z,10.67
2023-01-04T02:47:48.915Z,10.50
2023-01-04T02:50:36.027Z,11.17
2023-01-04T02:53:07.156Z,13.73
2023-01-04T02:55:44.719Z,11.70
2023-01-04T02:58:24.121Z,12.10
2023-01-04T03:01:13.673Z,12.13
2023-01-04T03:04:07.364Z,12.70
2023-01-04T03:06:41.843Z,12.27
2023-01-04T03:09:16.141Z,11.40
2023-01-04T03:11:59.934Z,12.13
2023-01-04T03:14:30.734Z,11.67
2023-01-04T03:17:01.649Z,11.60
2023-01-04T03:19:50.061Z,11.13
2023-01-04T03:22:32.901Z,10.83
2023-01-04T03:25:18.415Z,10.60
2023-01-04T03:28:05.593Z,9.83
2023-01-04T03:30:53.911Z,9.20
2023-01-04T03:33:39.417Z,11.53
2023-01-04T03:36:15.161Z,10.60
2023-01-04T03:39:03.384Z,12.87
2023-01-04T03:41:50.724Z,11.90
2023-01-04T03:44:39.552Z,11.40
2023-01-04T03:47:28.041Z,11.43
2023-01-04T03:49:58.047Z,11.97
2023-01-04T03:52:28.371Z,12.83
2023-01-04T03:54:57.202Z,12.37
2023-01-04T03:57:25.988Z,11.20
2023-01-04T03:59:58.890Z,11.90
2023-01-04T04:02:30.307Z,12.63
2023-01-04T04:05:15.969Z,11.57
2023-01-04T04:08:02.505Z,11.53
2023-01-04T04:10:30.028Z,11.63
2023-01-04T04:12:57.468Z,10.20
2023-01-04T04:15:25.030Z,10.77
2023-01-04T04:17:52.565Z,10.60
2023-01-04T04:20:20.068Z,10.07
2023-01-04T04:22:48.867Z,8.70
2023-01-04T04:25:16.580Z,9.30
2023-01-04T04:27:44.018Z,8.80
2023-01-04T04:30:11.721Z,8.90
2023-01-04T04:32:39.166Z,10.00
2023-01-04T04:35:07.224Z,8.40
2023-01-04T04:37:34.981Z,8.53
2023-01-04T04:40:03.980Z,8.53
2023-01-04T04:42:30.491Z,9.77
2023-01-04T04:44:57.971Z,9.33
2023-01-04T04:47:25.424Z,9.73
2023-01-04T04:49:52.869Z,8.47
2023-01-04T04:52:20.362Z,8.93
2023-01-04T04:54:47.829Z,9.00
2023-01-04T04:57:16.641Z,11.87
2023-01-04T04:59:44.091Z,9.23
2023-01-04T05:02:11.719Z,9.17
2023-01-04T05:04:39.258Z,10.50
2023-01-04T05:07:12.289Z,10.77
2023-01-04T05:09:40.151Z,8.80
2023-01-04T05:12:25.247Z,10.23
2023-01-04T05:14:54.079Z,10.27
2023-01-04T05:17:21.551Z,10.57
2023-01-04T05:19:48.977Z,10.70
2023-01-04T05:22:16.474Z,9.10
2023-01-04T05:24:43.974Z,9.90
2023-01-04T05:27:11.454Z,9.70
2023-01-04T05:29:53.139Z,9.80
2023-01-04T05:32:21.939Z,8.90
2023-01-04T05:34:49.397Z,10.30
2023-01-04T05:37:16.854Z,9.00
2023-01-04T05:39:44.307Z,9.00
2023-01-04T05:42:27.856Z,8.80
2023-01-04T05:44:56.402Z,7.87
2023-01-04T05:47:25.574Z,9.17
2023-01-04T05:49:53.703Z,9.50
2023-01-04T05:52:21.487Z,9.87
2023-01-04T05:54:49.133Z,8.67
2023-01-04T05:57:16.937Z,7.97
2023-01-04T05:59:44.583Z,8.03
2023-01-04T06:02:17.116Z,9.40
2023-01-04T06:04:49.228Z,8.00
2023-01-04T06:07:19.143Z,9.37
2023-01-04T06:09:46.621Z,9.57
2023-01-04T06:12:14.611Z,8.47
2023-01-04T06:14:42.128Z,8.80
2023-01-04T06:17:09.692Z,8.43
2023-01-04T06:19:37.451Z,9.00
2023-01-04T06:22:06.430Z,8.90
2023-01-04T06:24:34.861Z,8.10
2023-01-04T06:27:02.477Z,9.13
2023-01-04T06:29:29.987Z,8.33
2023-01-04T06:31:57.484Z,9.80
2023-01-04T06:34:30.594Z,8.70
2023-01-04T06:36:58.569Z,8.40
2023-01-04T06:39:27.534Z,9.30
2023-01-04T06:41:59.059Z,9.17
2023-01-04T06:44:31.365Z,8.57
2023-01-04T06:46:58.865Z,8.40
2023-01-04T06:49:26.308Z,8.93
2023-01-04T06:51:53.762Z,8.93
2023-01-04T06:54:21.272Z,9.70
2023-01-04T06:56:50.081Z,8.73
2023-01-04T06:59:17.562Z,8.50
2023-01-04T07:01:45.141Z,8.00
2023-01-04T07:04:12.702Z,9.23
2023-01-04T07:06:40.150Z,9.20
2023-01-04T07:09:07.592Z,8.33
2023-01-04T07:11:35.046Z,9.77
2023-01-04T07:14:03.872Z,7.97
2023-01-04T07:16:31.421Z,8.33
2023-01-04T07:18:59.072Z,9.20
2023-01-04T07:21:26.851Z,8.93
2023-01-04T07:23:54.341Z,7.93
2023-01-04T07:26:21.799Z,8.53
2023-01-04T07:29:06.968Z,7.70
2023-01-04T07:31:35.790Z,7.63
2023-01-04T07:34:03.338Z,9.00
2023-01-04T07:36:30.887Z,8.23
2023-01-04T07:39:00.135Z,7.57
2023-01-04T07:41:27.670Z,7.63
2023-01-04T07:43:55.318Z,8.80
2023-01-04T07:46:22.896Z,7.43
2023-01-04T07:48:51.800Z,7.63
2023-01-04T07:51:19.247Z,8.63
2023-01-04T07:53:46.725Z,8.30
2023-01-04T07:56:18.768Z,7.70
2023-01-04T07:58:46.541Z,8.83
2023-01-04T08:01:16.074Z,7.13
2023-01-04T08:03:45.217Z,7.50
2023-01-04T08:06:15.965Z,6.63
2023-01-04T08:08:44.113Z,7.37
2023-01-04T08:11:13.575Z,8.87
2023-01-04T08:13:41.338Z,7.20
2023-01-04T08:16:09.243Z,7.30
2023-01-04T08:18:36.734Z,7.27
2023-01-04T08:21:05.441Z,6.83
2023-01-04T08:23:35.555Z,7.17
2023-01-04T08:26:04.413Z,7.63
2023-01-04T08:28:32.366Z,6.33
2023-01-04T08:30:59.849Z,7.27
2023-01-04T08:33:27.324Z,5.80
2023-01-04T08:35:54.804Z,6.00
2023-01-04T08:38:58.140Z,5.73
2023-01-04T08:41:39.233Z,6.00
2023-01-04T08:43:58.542Z,4.87
2023-01-04T08:46:26.065Z,5.33
2023-01-04T08:48:53.754Z,5.13
2023-01-04T08:51:21.263Z,4.90
2023-01-04T08:53:48.858Z,4.63
2023-01-04T08:56:17.653Z,4.40
2023-01-04T08:58:45.807Z,5.60
2023-01-04T09:01:13.640Z,5.23
2023-01-04T09:03:41.953Z,4.80
2023-01-04T09:06:11.475Z,4.07
2023-01-04T09:08:40.350Z,4.87
2023-01-04T09:11:10.067Z,4.33
2023-01-04T09:13:39.264Z,3.83
2023-01-04T09:16:08.815Z,4.03
2023-01-04T09:18:36.468Z,3.60
2023-01-04T09:21:06.618Z,4.10
2023-01-04T09:23:34.749Z,4.27
2023-01-04T09:26:09.425Z,3.93
2023-01-04T09:28:38.741Z,3.73
2023-01-04T09:31:07.410Z,3.43
2023-01-04T09:34:03.913Z,3.73
2023-01-04T09:36:23.865Z,3.30
2023-01-04T09:38:51.983Z,4.07
2023-01-04T09:41:47.309Z,3.50
2023-01-04T09:44:20.375Z,3.80
2023-01-04T09:46:50.987Z,5.20
2023-01-04T09:49:22.400Z,3.33
2023-01-04T09:51:56.160Z,3.90
2023-01-04T09:54:24.593Z,3.17
2023-01-04T09:56:55.847Z,3.33
2023-01-04T09:59:30.271Z,3.00
2023-01-04T10:02:01.320Z,2.60
2023-01-04T10:04:37.605Z,2.50
2023-01-04T10:07:05.615Z,3.10
2023-01-04T10:09:33.365Z,2.10
2023-01-04T10:12:14.346Z,1.90
2023-01-04T10:14:51.893Z,2.27
2023-01-04T10:18:29.798Z,2.00
2023-01-04T10:21:23.229Z,1.87
2023-01-04T10:23:35.299Z,2.37
2023-01-04T10:26:07.543Z,1.80
2023-01-04T10:28:56.289Z,2.03
2023-01-04T10:31:39.411Z,2.60
2023-01-04T10:34:19.138Z,1.90
2023-01-04T10:36:47.633Z,1.73
2023-01-04T10:39:17.058Z,2.03
2023-01-04T10:41:51.269Z,1.83
2023-01-04T10:44:24.361Z,2.20
2023-01-04T10:46:59.147Z,2.37
2023-01-04T10:49:30.702Z,1.77
2023-01-04T10:52:00.593Z,2.03
2023-01-04T10:54:32.377Z,1.83
2023-01-04T10:57:06.876Z,1.60
2023-01-04T10:59:39.693Z,2.00
2023-01-04T11:02:17.105Z,2.70
2023-01-04T11:04:50.175Z,1.87
2023-01-04T11:07:20.452Z,1.63
2023-01-04T11:09:52.069Z,1.60
2023-01-04T11:12:22.434Z,2.03
2023-01-04T11:14:50.124Z,2.17
2023-01-04T11:17:19.277Z,2.00
2023-01-04T11:19:46.796Z,1.63
2023-01-04T11:22:17.935Z,2.30
2023-01-04T11:25:07.869Z,2.00
2023-01-04T11:27:41.417Z,1.73
2023-01-04T11:30:17.250Z,1.90
2023-01-04T11:32:51.327Z,1.60
2023-01-04T11:35:42.262Z,1.87
2023-01-04T11:38:13.045Z,1.70
2023-01-04T11:40:41.289Z,1.67
2023-01-04T11:43:16.137Z,1.80
2023-01-04T11:45:54.190Z,2.10
2023-01-04T11:48:32.312Z,2.00
2023-01-04T11:50:59.800Z,2.03
2023-01-04T11:53:31.054Z,1.40
2023-01-04T11:56:17.768Z,1.90
2023-01-04T11:58:47.000Z,1.67
2023-01-04T12:01:23.060Z,1.50
2023-01-04T12:03:52.399Z,1.90
2023-01-04T12:06:23.060Z,1.60
2023-01-04T12:08:50.577Z,1.97
2023-01-04T12:11:21.907Z,1.70
2023-01-04T12:13:49.365Z,1.50
2023-01-04T12:16:23.069Z,1.40
2023-01-04T12:18:52.030Z,1.80
2023-01-04T12:21:22.322Z,1.40
2023-01-04T12:23:50.357Z,1.53
2023-01-04T12:26:18.340Z,1.20
2023-01-04T12:28:47.298Z,1.57
2023-01-04T12:31:35.472Z,1.30
2023-01-04T12:34:36.436Z,1.40
2023-01-04T12:37:06.365Z,1.30
2023-01-04T12:39:43.291Z,1.40
2023-01-04T12:42:17.729Z,1.33
2023-01-04T12:44:59.767Z,2.50
2023-01-04T12:47:58.200Z,1.23
2023-01-04T12:50:27.547Z,1.17
2023-01-04T12:55:55.755Z,1.10
2023-01-04T12:59:26.720Z,1.20
2023-01-04T13:02:19.650Z,1.50
2023-01-04T13:04:47.605Z,1.13
2023-01-04T13:07:27.442Z,1.50
2023-01-04T13:09:59.334Z,1.60
2023-01-04T13:12:43.357Z,1.50
2023-01-04T13:15:19.660Z,1.50
2023-01-04T13:17:47.876Z,1.50
2023-01-04T13:20:17.988Z,1.90
2023-01-04T13:22:50.547Z,1.77
2023-01-04T13:25:20.267Z,1.87
2023-01-04T13:27:59.052Z,1.40
2023-01-04T13:30:31.878Z,1.80
2023-01-04T13:33:25.527Z,1.70
2023-01-04T13:36:01.133Z,1.40
2023-01-04T13:38:28.603Z,2.10
2023-01-04T13:40:57.574Z,1.63
2023-01-04T13:43:39.623Z,1.93
2023-01-04T13:46:14.454Z,1.80
2023-01-04T13:48:43.450Z,1.70
2023-01-04T13:51:16.052Z,1.57
2023-01-04T13:53:44.222Z,1.70
2023-01-04T13:56:20.629Z,1.53
2023-01-04T13:58:48.181Z,1.33
2023-01-04T14:01:18.930Z,1.40
2023-01-04T14:03:47.887Z,1.37
2023-01-04T14:06:21.638Z,1.17
2023-01-04T14:08:54.776Z,1.30
2023-01-04T14:11:43.432Z,1.57
2023-01-04T14:14:19.709Z,1.50
2023-01-04T14:16:47.347Z,1.03
2023-01-04T14:19:38.983Z,1.80
2023-01-04T14:22:29.228Z,1.20
2023-01-04T14:25:13.509Z,1.20
2023-01-04T14:27:43.512Z,1.30
2023-01-04T14:30:24.911Z,1.10
2023-01-04T14:32:56.525Z,0.90
2023-01-04T14:35:24.311Z,1.47
2023-01-04T14:37:52.123Z,1.00
2023-01-04T14:40:25.002Z,1.10
2023-01-04T14:42:53.876Z,1.03
2023-01-04T14:45:21.342Z,1.20
2023-01-04T14:47:48.896Z,1.17
2023-01-04T14:50:17.723Z,1.10
2023-01-04T14:52:51.408Z,2.50
2023-01-04T14:55:18.908Z,1.10
2023-01-04T14:57:46.401Z,1.30
2023-01-04T15:00:19.497Z,1.37
2023-01-04T15:02:50.190Z,0.93
2023-01-04T15:05:19.877Z,0.90
2023-01-04T15:07:47.556Z,0.90
2023-01-04T15:10:20.848Z,0.90
2023-01-04T15:12:48.362Z,1.20
2023-01-04T15:15:17.373Z,1.03
2023-01-04T15:17:44.946Z,0.80
2023-01-04T15:20:12.607Z,0.90
2023-01-04T15:22:40.354Z,0.90
2023-01-04T15:25:08.828Z,0.80
2023-01-04T15:27:41.941Z,0.70
2023-01-04T15:30:11.356Z,1.10
2023-01-04T15:32:41.147Z,1.20
2023-01-04T15:35:09.176Z,1.00
2023-01-04T15:37:36.815Z,0.73
2023-01-04T15:40:04.901Z,1.07
2023-01-04T15:42:50.306Z,1.00
2023-01-04T15:45:18.010Z,0.80
2023-01-04T15:47:46.865Z,0.87
2023-01-04T15:50:14.386Z,0.70
2023-01-04T15:52:41.985Z,0.90
2023-01-04T15:55:10.283Z,0.60
2023-01-04T15:57:41.956Z,0.80
2023-01-04T16:00:13.140Z,0.60
2023-01-04T16:02:41.045Z,0.70
2023-01-04T16:05:11.055Z,0.70
2023-01-04T16:07:38.778Z,0.67
2023-01-04T16:10:07.308Z,0.80
2023-01-04T16:12:44.463Z,0.60
2023-01-04T16:15:14.439Z,0.70
2023-01-04T16:17:42.533Z,0.70
2023-01-04T16:20:13.266Z,0.80
2023-01-04T16:22:41.269Z,0.70
2023-01-04T16:25:11.644Z,0.60
2023-01-04T16:27:40.142Z,0.60
2023-01-04T16:30:09.853Z,0.50
2023-01-04T16:32:38.153Z,0.70
2023-01-04T16:35:06.138Z,0.70
2023-01-04T16:37:35.087Z,0.53
2023-01-04T16:40:07.193Z,0.60
2023-01-04T16:42:38.110Z,0.70
2023-01-04T16:45:06.739Z,0.70
2023-01-04T16:47:39.457Z,0.80
2023-01-04T16:50:07.687Z,0.80
2023-01-04T16:52:36.807Z,0.50
2023-01-04T16:55:06.652Z,0.50
2023-01-04T16:57:34.181Z,0.70
2023-01-04T17:00:01.787Z,0.70
2023-01-04T17:02:29.508Z,0.80
2023-01-04T17:04:59.607Z,0.90
2023-01-04T17:07:32.476Z,1.00
2023-01-04T17:10:05.783Z,0.60
2023-01-04T17:12:49.302Z,0.50
2023-01-04T17:18:06.000Z,0.50
2023-01-04T17:20:33.645Z,0.90
2023-01-04T17:23:01.206Z,0.53
2023-01-04T17:25:30.113Z,0.50
2023-01-04T17:27:57.577Z,0.60
2023-01-04T17:30:25.073Z,0.67
2023-01-04T17:32:52.557Z,0.90
2023-01-04T17:35:20.045Z,1.00
2023-01-04T17:37:47.484Z,0.67
2023-01-04T17:40:20.655Z,0.60
2023-01-04T17:42:51.948Z,0.80
2023-01-04T17:45:19.626Z,0.60
2023-01-04T17:47:47.444Z,3.80
2023-01-04T17:50:15.736Z,0.70
2023-01-04T17:52:45.424Z,0.80
2023-01-04T17:55:13.159Z,0.60
2023-01-04T18:00:20.544Z,0.60
2023-01-04T18:02:48.276Z,0.60
2023-01-04T18:05:16.000Z,0.50
2023-01-04T18:07:43.661Z,0.53
2023-01-04T18:10:26.774Z,0.60
2023-01-04T18:13:00.793Z,0.60
2023-01-04T18:15:29.909Z,0.53
2023-01-04T18:17:57.487Z,0.70
2023-01-04T18:20:26.546Z,0.60
2023-01-04T18:22:54.115Z,0.90
2023-01-04T18:25:21.911Z,0.60
2023-01-04T18:27:49.448Z,0.60
2023-01-04T18:30:17.151Z,0.67
2023-01-04T18:32:46.083Z,0.57
2023-01-04T18:35:13.712Z,0.60
2023-01-04T18:37:41.293Z,0.60
2023-01-04T18:40:10.607Z,0.60
2023-01-04T18:42:38.231Z,0.60
2023-01-04T18:45:07.118Z,0.60
2023-01-04T18:47:34.826Z,0.50
2023-01-04T18:50:03.715Z,0.50
2023-01-04T18:52:31.221Z,0.60
2023-01-04T18:54:58.819Z,0.83
2023-01-04T18:57:26.373Z,0.60
2023-01-04T18:59:53.919Z,0.60
2023-01-04T19:02:21.849Z,0.50
2023-01-04T19:04:49.564Z,0.60
2023-01-04T19:07:20.441Z,0.60
2023-01-04T19:09:48.058Z,0.60
2023-01-04T19:12:16.175Z,0.87
2023-01-04T19:14:43.792Z,0.80
2023-01-04T19:17:11.647Z,0.70
2023-01-04T19:19:39.329Z,0.63
2023-01-04T19:22:06.879Z,0.60
2023-01-04T19:24:35.823Z,0.60
2023-01-04T19:27:05.081Z,0.83
2023-01-04T19:29:33.966Z,0.60
2023-01-04T19:32:01.870Z,0.70
2023-01-04T19:34:31.054Z,0.50
2023-01-04T19:36:58.666Z,0.70
2023-01-04T19:39:26.327Z,0.67
2023-01-04T19:41:55.195Z,0.60
2023-01-04T19:44:22.744Z,0.70
2023-01-04T19:46:50.268Z,0.63
2023-01-04T19:49:20.613Z,0.60
2023-01-04T19:51:50.780Z,0.73
2023-01-04T19:54:24.759Z,0.60
2023-01-04T19:56:53.312Z,0.50
2023-01-04T19:59:22.360Z,0.60
2023-01-04T20:01:50.347Z,0.50
2023-01-04T20:04:18.133Z,0.63
2023-01-04T20:06:48.187Z,0.70
2023-01-04T20:09:18.260Z,0.70
2023-01-04T20:11:45.802Z,0.70
2023-01-04T20:14:13.356Z,0.50
2023-01-04T20:16:42.272Z,0.70
2023-01-04T20:19:09.807Z,0.70
2023-01-04T20:21:37.314Z,0.73
2023-01-04T20:24:05.317Z,0.80
2023-01-04T20:26:32.879Z,0.60
2023-01-04T20:29:00.413Z,0.80
2023-01-04T20:31:27.956Z,0.73
2023-01-04T20:33:57.312Z,0.70
2023-01-04T20:36:26.590Z,1.03
2023-01-04T20:38:54.884Z,1.10
2023-01-04T20:41:24.013Z,0.67
2023-01-04T20:43:50.789Z,0.73
2023-01-04T20:46:19.655Z,0.67
2023-01-04T20:48:47.544Z,1.40
2023-01-04T20:51:18.329Z,0.60
2023-01-04T20:53:46.370Z,1.00
2023-01-04T20:56:15.459Z,0.83
2023-01-04T20:58:43.136Z,0.60
2023-01-04T21:01:10.865Z,1.00
2023-01-04T21:03:38.602Z,0.83
2023-01-04T21:06:08.043Z,0.80
2023-01-04T21:08:38.154Z,0.80
2023-01-04T21:11:06.182Z,0.63
2023-01-04T21:13:34.422Z,0.70
2023-01-04T21:16:02.849Z,0.70
2023-01-04T21:18:30.425Z,0.93
2023-01-04T21:20:58.004Z,0.90
2023-01-04T21:23:27.501Z,0.70
2023-01-04T21:25:57.082Z,0.70
2023-01-04T21:28:24.609Z,0.70
2023-01-04T21:30:52.281Z,1.07
2023-01-04T21:33:19.837Z,0.70
2023-01-04T21:35:47.359Z,0.90
2023-01-04T21:38:14.928Z,0.90
2023-01-04T21:40:42.946Z,0.80
2023-01-04T21:43:17.173Z,1.07
2023-01-04T21:45:44.850Z,0.73
2023-01-04T21:48:12.514Z,0.60
2023-01-04T21:50:40.059Z,0.60
2023-01-04T21:53:07.610Z,0.63
2023-01-04T21:55:35.388Z,0.73
2023-01-04T21:58:03.402Z,0.60
2023-01-04T22:00:32.230Z,0.73
2023-01-04T22:02:59.746Z,0.80
2023-01-04T22:05:27.281Z,0.93
2023-01-04T22:07:54.825Z,0.70
2023-01-04T22:10:22.324Z,0.60
2023-01-04T22:12:50.398Z,0.63
2023-01-04T22:15:18.055Z,0.97
2023-01-04T22:17:47.816Z,0.80
2023-01-04T22:20:15.463Z,0.53
2023-01-04T22:22:42.910Z,0.60
2023-01-04T22:25:10.784Z,0.60
2023-01-04T22:27:38.270Z,0.87
2023-01-04T22:30:07.141Z,1.00
2023-01-04T22:32:34.682Z,0.63
2023-01-04T22:35:03.755Z,0.80
2023-01-04T22:37:31.216Z,0.90
2023-01-04T22:39:58.702Z,1.10
2023-01-04T22:42:26.280Z,0.90
2023-01-04T22:44:53.786Z,0.80
2023-01-04T22:47:21.327Z,1.00
2023-01-04T22:49:49.285Z,1.40
2023-01-04T22:52:18.181Z,1.20
2023-01-04T22:54:45.722Z,0.80
2023-01-04T22:57:13.255Z,0.90
2023-01-04T22:59:40.771Z,1.47
2023-01-04T23:02:08.415Z,1.10
2023-01-04T23:04:36.012Z,1.33
2023-01-04T23:07:03.584Z,1.30
2023-01-04T23:09:32.643Z,1.23
2023-01-04T23:12:00.199Z,1.27
2023-01-04T23:14:27.892Z,1.80
2023-01-04T23:16:55.473Z,1.30
2023-01-04T23:19:23.187Z,1.50
2023-01-04T23:21:50.843Z,1.70
2023-01-04T23:24:18.534Z,0.90
2023-01-04T23:26:48.200Z,1.40
2023-01-04T23:29:15.835Z,1.30
2023-01-04T23:31:43.477Z,1.00
2023-01-04T23:34:11.837Z,1.17
2023-01-04T23:36:41.211Z,1.33
2023-01-04T23:39:13.744Z,1.40
2023-01-04T23:41:46.579Z,1.10
2023-01-04T23:44:18.126Z,1.40
2023-01-04T23:46:46.924Z,1.40
2023-01-04T23:49:14.505Z,1.50
2023-01-04T23:51:43.351Z,1.67
2023-01-04T23:54:11.262Z,1.27
2023-01-04T23:56:39.545Z,1.77
2023-01-04T23:59:07.306Z,1.77
